Gambell, AK

11:27 PM AKST on December 26, 2014 (GMT -0900)
Savoonga | Change Station
CLOSE
Current Station
Airport
Location: Savoonga,
Elevation: 52 ft
Nearby Weather Stations
Active Advisory: Winter Storm Warning Active Notice: Record Report

Elev 52 ft 63.69 °N, 170.49 °W | Updated 11 minutes ago

Mostly Cloudy
Mostly Cloudy
10 °F
Feels Like -12 °F
N
32
Wind Variable Wind from East
Gusts 40 mph

Today
High -- | Low -- °F
--% Chance of Precip.
Yesterday
High -- | Low -- °F
Precip. -- in
12:16 PM 4:39 PM
Waxing Crescent, 34% visible
Pressure 29.97 in
Visibility 3.0 miles
Clouds Few 1400 ft
Scattered Clouds 7000 ft
Mostly Cloudy 10000 ft
Windchill -12 °F
Dew Point 5 °F
Humidity 79%
Rainfall 0.01 in
Snow Depth Not available.
UV 0 out of 12
Pollen Not available.
Air Quality Not available.
Flu Activity Not available.
METAR PASA 270816Z AUTO 09028G35KT 3SM FEW014 SCT070 BKN100 M12/M15 A2997 RMK AO1 P0001

More Conditions Fewer Conditions

Pressure 29.97 in
Visibility 3.0 miles
Clouds Few 1400 ft
Scattered Clouds 7000 ft
Mostly Cloudy 10000 ft
Windchill -12 °F
Dew Point 5 °F
Humidity 79%
Rainfall 0.01 in
Snow Depth Not available.
UV 0 out of 12
Pollen Not available.
Air Quality Not available.
Flu Activity Not available.
METAR PASA 270816Z AUTO 09028G35KT 3SM FEW014 SCT070 BKN100 M12/M15 A2997 RMK AO1 P0001

More Conditions Fewer Conditions

10-Day Weather Forecast

Almanac

Astronomy

Dec. 26, 2014 Rise Set
Actual Time
Civil Twilight
Nautical Twilight
Astronomical Twilight
Moon
Length of Visible Light
Length of Day
Tomorrow will be .
, % of the Moon is Illuminated

Today's Extremes

State Highs State Lows

Community

WunderPhotos

Upload Photos

1,780,863 photos uploaded!

WunderBlogs® & News

Nearby

Air Quality

  Air Quality AQ Index Pollutant
Not available.

Snow Depth

Station Depth Elevation

Earthquake Activity

City Distance Mag. Time & Date
Minimum magnitude displayed is 2.5.

Coastal Water Temperatures

Place Temperature

Nearby Weather Stations